sensor_id;sensor_type;location;lat;lon;timestamp;pressure;altitude;pressure_sealevel;temperature;humidity
550;BME280;20066;48.764;9.176;2023-05-01T00:01:08;98154.09;;;14.28;54.54
550;BME280;20066;48.764;9.176;2023-05-01T00:03:36;98155.41;;;14.43;53.56
550;BME280;20066;48.764;9.176;2023-05-01T00:06:04;98150.53;;;14.58;53.39
550;BME280;20066;48.764;9.176;2023-05-01T00:08:33;98142.66;;;14.67;52.79
550;BME280;20066;48.764;9.176;2023-05-01T00:11:01;98141.91;;;14.40;53.79
550;BME280;20066;48.764;9.176;2023-05-01T00:13:29;98138.09;;;14.37;54.09
550;BME280;20066;48.764;9.176;2023-05-01T00:15:57;98140.94;;;14.53;53.51
550;BME280;20066;48.764;9.176;2023-05-01T00:18:28;98133.66;;;14.74;52.49
550;BME280;20066;48.764;9.176;2023-05-01T00:20:56;98134.00;;;14.25;54.38
550;BME280;20066;48.764;9.176;2023-05-01T00:23:24;98124.88;;;14.16;54.45
550;BME280;20066;48.764;9.176;2023-05-01T00:25:51;98131.16;;;14.09;55.03
550;BME280;20066;48.764;9.176;2023-05-01T00:28:19;98130.38;;;14.09;54.98
550;BME280;20066;48.764;9.176;2023-05-01T00:30:47;98129.84;;;14.21;54.28
550;BME280;20066;48.764;9.176;2023-05-01T00:33:15;98126.59;;;14.56;52.87
550;BME280;20066;48.764;9.176;2023-05-01T00:35:44;98115.75;;;14.56;53.33
550;BME280;20066;48.764;9.176;2023-05-01T00:38:12;98117.09;;;14.21;54.67
550;BME280;20066;48.764;9.176;2023-05-01T00:40:41;98111.84;;;14.34;53.78
550;BME280;20066;48.764;9.176;2023-05-01T00:43:09;98109.97;;;14.31;53.90
550;BME280;20066;48.764;9.176;2023-05-01T00:45:37;98110.88;;;14.48;53.29
550;BME280;20066;48.764;9.176;2023-05-01T00:48:06;98106.84;;;14.33;53.77
550;BME280;20066;48.764;9.176;2023-05-01T00:50:34;98099.56;;;13.99;55.55
550;BME280;20066;48.764;9.176;2023-05-01T00:53:03;98103.81;;;14.04;54.62
550;BME280;20066;48.764;9.176;2023-05-01T00:55:32;98098.50;;;13.93;55.81
550;BME280;20066;48.764;9.176;2023-05-01T00:58:01;98097.97;;;14.32;54.26
550;BME280;20066;48.764;9.176;2023-05-01T01:00:29;98098.44;;;14.27;54.14
550;BME280;20066;48.764;9.176;2023-05-01T01:02:57;98092.28;;;13.96;55.71
550;BME280;20066;48.764;9.176;2023-05-01T01:05:27;98099.19;;;14.27;54.65
550;BME280;20066;48.764;9.176;2023-05-01T01:08:04;98087.41;;;14.14;54.78
550;BME280;20066;48.764;9.176;2023-05-01T01:10:45;98078.00;;;14.22;54.51
550;BME280;20066;48.764;9.176;2023-05-01T01:13:19;98087.72;;;14.20;54.50
550;BME280;20066;48.764;9.176;2023-05-01T01:15:56;98084.47;;;14.05;55.70
550;BME280;20066;48.764;9.176;2023-05-01T01:18:32;98078.91;;;14.39;53.73
550;BME280;20066;48.764;9.176;2023-05-01T01:21:07;98078.84;;;14.19;54.06
550;BME280;20066;48.764;9.176;2023-05-01T01:24:25;98074.34;;;14.09;54.89
550;BME280;20066;48.764;9.176;2023-05-01T01:27:22;98070.97;;;14.02;54.56
550;BME280;20066;48.764;9.176;2023-05-01T01:30:13;98073.19;;;14.10;54.54
550;BME280;20066;48.764;9.176;2023-05-01T01:33:02;98074.41;;;14.06;54.86
550;BME280;20066;48.764;9.176;2023-05-01T01:35:45;98065.03;;;13.83;55.98
550;BME280;20066;48.764;9.176;2023-05-01T01:38:20;98076.81;;;13.70;56.63
550;BME280;20066;48.764;9.176;2023-05-01T01:40:54;98073.00;;;13.67;55.87
550;BME280;20066;48.764;9.176;2023-05-01T01:43:24;98077.53;;;14.04;54.65
550;BME280;20066;48.764;9.176;2023-05-01T01:45:59;98074.50;;;14.25;53.85
550;BME280;20066;48.764;9.176;2023-05-01T01:48:31;98074.56;;;13.91;55.28
550;BME280;20066;48.764;9.176;2023-05-01T01:51:06;98066.34;;;13.99;54.95
550;BME280;20066;48.764;9.176;2023-05-01T01:53:36;98061.38;;;13.97;55.35
550;BME280;20066;48.764;9.176;2023-05-01T01:56:06;98064.78;;;14.05;55.26
550;BME280;20066;48.764;9.176;2023-05-01T01:58:35;98061.63;;;13.79;55.70
550;BME280;20066;48.764;9.176;2023-05-01T02:01:04;98054.06;;;13.94;55.49
550;BME280;20066;48.764;9.176;2023-05-01T02:03:33;98058.59;;;14.04;55.26
550;BME280;20066;48.764;9.176;2023-05-01T02:06:04;98052.25;;;14.14;55.20
550;BME280;20066;48.764;9.176;2023-05-01T02:08:35;98052.56;;;14.20;55.02
550;BME280;20066;48.764;9.176;2023-05-01T02:11:04;98045.03;;;14.31;54.07
550;BME280;20066;48.764;9.176;2023-05-01T02:13:33;98051.78;;;13.93;55.64
550;BME280;20066;48.764;9.176;2023-05-01T02:16:04;98043.75;;;13.59;56.82
550;BME280;20066;48.764;9.176;2023-05-01T02:18:33;98043.25;;;13.94;55.54
550;BME280;20066;48.764;9.176;2023-05-01T02:21:04;98035.69;;;14.12;55.00
550;BME280;20066;48.764;9.176;2023-05-01T02:23:33;98040.59;;;14.17;54.82
550;BME280;20066;48.764;9.176;2023-05-01T02:26:02;98036.84;;;14.11;55.01
550;BME280;20066;48.764;9.176;2023-05-01T02:28:31;98039.69;;;14.27;54.55
550;BME280;20066;48.764;9.176;2023-05-01T02:31:00;98033.88;;;14.29;54.66
550;BME280;20066;48.764;9.176;2023-05-01T02:33:28;98033.50;;;14.27;54.61
550;BME280;20066;48.764;9.176;2023-05-01T02:35:55;98030.59;;;14.38;54.43
550;BME280;20066;48.764;9.176;2023-05-01T02:38:25;98025.91;;;14.42;54.36
550;BME280;20066;48.764;9.176;2023-05-01T02:40:55;98028.97;;;14.44;54.33
550;BME280;20066;48.764;9.176;2023-05-01T02:43:25;98019.50;;;14.32;54.32
550;BME280;20066;48.764;9.176;2023-05-01T02:45:56;98019.91;;;14.31;54.54
550;BME280;20066;48.764;9.176;2023-05-01T02:48:27;98011.84;;;14.27;54.93
550;BME280;20066;48.764;9.176;2023-05-01T02:50:55;98017.91;;;14.35;54.35
550;BME280;20066;48.764;9.176;2023-05-01T02:53:24;98015.66;;;14.29;54.42
550;BME280;20066;48.764;9.176;2023-05-01T02:55:52;98015.78;;;14.46;53.64
550;BME280;20066;48.764;9.176;2023-05-01T02:58:20;98016.41;;;14.53;53.61
550;BME280;20066;48.764;9.176;2023-05-01T03:00:48;98012.84;;;14.60;53.73
550;BME280;20066;48.764;9.176;2023-05-01T03:03:16;98012.22;;;14.52;53.90
550;BME280;20066;48.764;9.176;2023-05-01T03:05:44;98017.38;;;14.43;54.15
550;BME280;20066;48.764;9.176;2023-05-01T03:08:13;98010.81;;;14.44;54.12
550;BME280;20066;48.764;9.176;2023-05-01T03:10:42;98012.16;;;14.33;54.46
550;BME280;20066;48.764;9.176;2023-05-01T03:13:10;98018.44;;;14.49;54.02
550;BME280;20066;48.764;9.176;2023-05-01T03:15:38;98013.50;;;14.44;54.46
550;BME280;20066;48.764;9.176;2023-05-01T03:18:06;98013.31;;;14.55;53.70
550;BME280;20066;48.764;9.176;2023-05-01T03:20:35;98011.44;;;14.52;54.02
550;BME280;20066;48.764;9.176;2023-05-01T03:23:02;98007.78;;;14.39;54.69
550;BME280;20066;48.764;9.176;2023-05-01T03:25:31;98006.03;;;14.28;55.07
550;BME280;20066;48.764;9.176;2023-05-01T03:28:01;98015.09;;;14.42;54.88
550;BME280;20066;48.764;9.176;2023-05-01T03:30:29;98007.47;;;14.56;53.99
550;BME280;20066;48.764;9.176;2023-05-01T03:32:59;98000.94;;;14.54;54.22
550;BME280;20066;48.764;9.176;2023-05-01T03:35:27;98005.38;;;14.44;54.48
550;BME280;20066;48.764;9.176;2023-05-01T03:37:55;98001.47;;;14.45;54.81
550;BME280;20066;48.764;9.176;2023-05-01T03:40:23;97998.25;;;14.54;53.96
550;BME280;20066;48.764;9.176;2023-05-01T03:42:50;97998.84;;;14.42;54.70
550;BME280;20066;48.764;9.176;2023-05-01T03:45:19;97992.25;;;14.43;54.56
550;BME280;20066;48.764;9.176;2023-05-01T03:47:47;97993.94;;;14.13;55.18
550;BME280;20066;48.764;9.176;2023-05-01T03:50:15;97989.16;;;14.21;55.52
550;BME280;20066;48.764;9.176;2023-05-01T03:52:43;97987.78;;;14.33;55.32
550;BME280;20066;48.764;9.176;2023-05-01T03:55:10;97985.25;;;14.45;54.72
550;BME280;20066;48.764;9.176;2023-05-01T03:57:38;97983.16;;;14.53;54.63
550;BME280;20066;48.764;9.176;2023-05-01T04:00:07;97982.47;;;14.49;54.47
550;BME280;20066;48.764;9.176;2023-05-01T04:02:37;97981.91;;;14.38;54.77
550;BME280;20066;48.764;9.176;2023-05-01T04:05:06;97977.97;;;14.42;55.09
550;BME280;20066;48.764;9.176;2023-05-01T04:07:34;97987.59;;;14.66;53.87
550;BME280;20066;48.764;9.176;2023-05-01T04:10:02;97982.84;;;14.71;53.63
550;BME280;20066;48.764;9.176;2023-05-01T04:12:32;97980.00;;;14.58;54.49
550;BME280;20066;48.764;9.176;2023-05-01T04:15:00;97981.97;;;14.34;55.59
550;BME280;20066;48.764;9.176;2023-05-01T04:17:28;97982.13;;;14.47;55.00
550;BME280;20066;48.764;9.176;2023-05-01T04:19:58;97985.56;;;14.51;54.95
550;BME280;20066;48.764;9.176;2023-05-01T04:22:26;97982.63;;;14.61;54.40
550;BME280;20066;48.764;9.176;2023-05-01T04:24:54;97979.69;;;14.76;54.05
550;BME280;20066;48.764;9.176;2023-05-01T04:27:21;97982.66;;;14.81;54.01
550;BME280;20066;48.764;9.176;2023-05-01T04:29:50;97980.78;;;14.78;54.09
550;BME280;20066;48.764;9.176;2023-05-01T04:32:18;97982.31;;;14.59;54.70
550;BME280;20066;48.764;9.176;2023-05-01T04:34:45;97977.22;;;14.61;55.05
550;BME280;20066;48.764;9.176;2023-05-01T04:37:14;97980.31;;;14.40;56.00
550;BME280;20066;48.764;9.176;2023-05-01T04:39:43;97983.56;;;14.32;56.57
550;BME280;20066;48.764;9.176;2023-05-01T04:42:12;97981.88;;;14.61;54.99
550;BME280;20066;48.764;9.176;2023-05-01T04:44:40;97984.19;;;14.82;54.07
550;BME280;20066;48.764;9.176;2023-05-01T04:47:09;97983.06;;;14.60;55.12
550;BME280;20066;48.764;9.176;2023-05-01T04:49:38;97981.03;;;14.44;55.79
550;BME280;20066;48.764;9.176;2023-05-01T04:52:06;97987.50;;;14.70;54.50
550;BME280;20066;48.764;9.176;2023-05-01T04:54:36;97982.53;;;14.88;54.12
550;BME280;20066;48.764;9.176;2023-05-01T04:57:04;97984.34;;;14.75;54.99
550;BME280;20066;48.764;9.176;2023-05-01T04:59:36;97980.09;;;14.94;54.05
550;BME280;20066;48.764;9.176;2023-05-01T05:02:04;97983.81;;;15.00;53.87
550;BME280;20066;48.764;9.176;2023-05-01T05:04:34;97991.19;;;14.99;53.96
550;BME280;20066;48.764;9.176;2023-05-01T05:07:04;97990.97;;;14.71;55.07
550;BME280;20066;48.764;9.176;2023-05-01T05:09:37;97987.03;;;14.95;54.27
550;BME280;20066;48.764;9.176;2023-05-01T05:12:05;97989.53;;;15.05;53.76
550;BME280;20066;48.764;9.176;2023-05-01T05:14:33;97986.72;;;14.70;55.32
550;BME280;20066;48.764;9.176;2023-05-01T05:17:04;97984.94;;;14.63;55.20
550;BME280;20066;48.764;9.176;2023-05-01T05:19:35;97978.69;;;14.23;56.67
550;BME280;20066;48.764;9.176;2023-05-01T05:22:03;97986.09;;;14.62;54.96
550;BME280;20066;48.764;9.176;2023-05-01T05:24:32;97984.25;;;14.79;54.62
550;BME280;20066;48.764;9.176;2023-05-01T05:27:06;97981.13;;;15.00;54.07
550;BME280;20066;48.764;9.176;2023-05-01T05:29:37;97983.09;;;15.19;53.71
550;BME280;20066;48.764;9.176;2023-05-01T05:32:11;97985.19;;;15.12;53.68
550;BME280;20066;48.764;9.176;2023-05-01T05:34:46;97979.53;;;15.02;54.18
550;BME280;20066;48.764;9.176;2023-05-01T05:37:15;97984.06;;;14.89;54.81
550;BME280;20066;48.764;9.176;2023-05-01T05:39:45;97987.88;;;15.12;54.06
550;BME280;20066;48.764;9.176;2023-05-01T05:42:18;97981.56;;;15.18;53.88
550;BME280;20066;48.764;9.176;2023-05-01T05:44:47;97995.28;;;14.88;54.68
550;BME280;20066;48.764;9.176;2023-05-01T05:47:15;97994.19;;;15.05;54.40
550;BME280;20066;48.764;9.176;2023-05-01T05:49:47;97996.47;;;14.67;55.95
550;BME280;20066;48.764;9.176;2023-05-01T05:52:15;97990.84;;;14.58;56.72
550;BME280;20066;48.764;9.176;2023-05-01T05:54:44;97988.03;;;14.61;56.73
550;BME280;20066;48.764;9.176;2023-05-01T05:57:17;97998.63;;;14.76;56.41
550;BME280;20066;48.764;9.176;2023-05-01T05:59:46;97992.69;;;14.61;56.88
550;BME280;20066;48.764;9.176;2023-05-01T06:02:15;97989.47;;;14.89;55.70
550;BME280;20066;48.764;9.176;2023-05-01T06:04:48;97986.69;;;14.93;55.38
550;BME280;20066;48.764;9.176;2023-05-01T06:07:16;97985.53;;;15.14;55.26
550;BME280;20066;48.764;9.176;2023-05-01T06:09:43;97989.19;;;15.23;55.08
550;BME280;20066;48.764;9.176;2023-05-01T06:12:11;97988.91;;;15.37;54.49
550;BME280;20066;48.764;9.176;2023-05-01T06:14:41;97986.88;;;15.41;54.47
550;BME280;20066;48.764;9.176;2023-05-01T06:17:09;97982.16;;;14.86;56.46
550;BME280;20066;48.764;9.176;2023-05-01T06:19:37;97990.28;;;14.86;56.71
550;BME280;20066;48.764;9.176;2023-05-01T06:22:04;97982.84;;;15.10;56.68
550;BME280;20066;48.764;9.176;2023-05-01T06:24:33;97988.72;;;15.28;56.08
550;BME280;20066;48.764;9.176;2023-05-01T06:27:02;97985.22;;;15.28;55.09
550;BME280;20066;48.764;9.176;2023-05-01T06:29:29;97990.16;;;15.33;55.44
550;BME280;20066;48.764;9.176;2023-05-01T06:31:59;97988.81;;;15.41;55.78
550;BME280;20066;48.764;9.176;2023-05-01T06:34:26;97993.88;;;15.75;54.61
550;BME280;20066;48.764;9.176;2023-05-01T06:36:57;97998.59;;;15.71;55.03
550;BME280;20066;48.764;9.176;2023-05-01T06:39:24;97999.50;;;15.48;55.22
550;BME280;20066;48.764;9.176;2023-05-01T06:41:52;97999.03;;;15.53;55.92
550;BME280;20066;48.764;9.176;2023-05-01T06:44:20;98002.81;;;15.20;57.35
550;BME280;20066;48.764;9.176;2023-05-01T06:46:48;98002.16;;;14.92;59.41
550;BME280;20066;48.764;9.176;2023-05-01T06:49:17;98008.28;;;15.36;56.92
550;BME280;20066;48.764;9.176;2023-05-01T06:51:45;98009.00;;;15.20;56.88
550;BME280;20066;48.764;9.176;2023-05-01T06:54:13;98002.97;;;14.70;59.49
550;BME280;20066;48.764;9.176;2023-05-01T06:56:40;98006.72;;;15.19;56.75
550;BME280;20066;48.764;9.176;2023-05-01T06:59:08;98003.53;;;15.60;55.29
550;BME280;20066;48.764;9.176;2023-05-01T07:01:36;98003.69;;;15.85;55.14
550;BME280;20066;48.764;9.176;2023-05-01T07:04:04;98011.13;;;15.49;56.24
550;BME280;20066;48.764;9.176;2023-05-01T07:06:34;98014.47;;;15.17;57.30
550;BME280;20066;48.764;9.176;2023-05-01T07:09:02;98009.94;;;15.10;55.26
550;BME280;20066;48.764;9.176;2023-05-01T07:11:30;98012.63;;;15.50;54.16
550;BME280;20066;48.764;9.176;2023-05-01T07:13:59;98020.28;;;15.55;54.09
550;BME280;20066;48.764;9.176;2023-05-01T07:16:27;98014.16;;;16.03;53.64
550;BME280;20066;48.764;9.176;2023-05-01T07:18:55;98014.78;;;15.58;54.24
550;BME280;20066;48.764;9.176;2023-05-01T07:21:23;98011.25;;;15.77;52.48
550;BME280;20066;48.764;9.176;2023-05-01T07:23:53;98016.94;;;15.47;54.26
550;BME280;20066;48.764;9.176;2023-05-01T07:26:20;98018.00;;;16.22;52.80
550;BME280;20066;48.764;9.176;2023-05-01T07:28:49;98018.59;;;16.29;51.12
550;BME280;20066;48.764;9.176;2023-05-01T07:31:17;98020.38;;;16.81;50.49
550;BME280;20066;48.764;9.176;2023-05-01T07:33:44;98011.44;;;15.87;52.59
550;BME280;20066;48.764;9.176;2023-05-01T07:36:13;98011.69;;;16.41;51.16
550;BME280;20066;48.764;9.176;2023-05-01T07:38:40;98019.63;;;16.64;49.71
550;BME280;20066;48.764;9.176;2023-05-01T07:41:09;98013.28;;;16.54;49.62
550;BME280;20066;48.764;9.176;2023-05-01T07:43:37;98011.00;;;16.53;49.62
550;BME280;20066;48.764;9.176;2023-05-01T07:46:05;98008.47;;;17.04;49.01
550;BME280;20066;48.764;9.176;2023-05-01T07:48:33;98005.25;;;16.51;48.90
550;BME280;20066;48.764;9.176;2023-05-01T07:51:04;98009.66;;;16.61;49.46
550;BME280;20066;48.764;9.176;2023-05-01T07:53:32;98005.69;;;16.17;50.24
550;BME280;20066;48.764;9.176;2023-05-01T07:56:06;97998.97;;;16.83;49.58
550;BME280;20066;48.764;9.176;2023-05-01T07:58:36;98005.63;;;16.94;49.61
550;BME280;20066;48.764;9.176;2023-05-01T08:01:05;98005.59;;;16.53;50.05
550;BME280;20066;48.764;9.176;2023-05-01T08:03:32;97997.69;;;15.77;50.95
550;BME280;20066;48.764;9.176;2023-05-01T08:06:02;97998.13;;;15.40;51.53
550;BME280;20066;48.764;9.176;2023-05-01T08:08:30;97996.50;;;15.78;51.06
550;BME280;20066;48.764;9.176;2023-05-01T08:10:58;97995.78;;;15.42;52.39
550;BME280;20066;48.764;9.176;2023-05-01T08:13:26;97989.53;;;15.77;51.52
550;BME280;20066;48.764;9.176;2023-05-01T08:15:58;97992.63;;;15.96;50.83
550;BME280;20066;48.764;9.176;2023-05-01T08:18:27;97999.94;;;16.15;50.89
550;BME280;20066;48.764;9.176;2023-05-01T08:20:55;97997.03;;;16.38;50.11
550;BME280;20066;48.764;9.176;2023-05-01T08:23:23;97993.91;;;15.91;51.06
550;BME280;20066;48.764;9.176;2023-05-01T08:25:51;97994.91;;;15.81;51.85
550;BME280;20066;48.764;9.176;2023-05-01T08:28:21;97989.22;;;15.75;51.89
550;BME280;20066;48.764;9.176;2023-05-01T08:30:50;97987.25;;;15.60;52.13
550;BME280;20066;48.764;9.176;2023-05-01T08:33:21;97990.84;;;14.78;55.21
550;BME280;20066;48.764;9.176;2023-05-01T08:35:48;97987.50;;;15.65;53.82
550;BME280;20066;48.764;9.176;2023-05-01T08:38:16;97984.84;;;16.59;50.80
550;BME280;20066;48.764;9.176;2023-05-01T08:40:48;97985.06;;;16.93;50.61
550;BME280;20066;48.764;9.176;2023-05-01T08:43:18;97986.59;;;16.04;51.76
550;BME280;20066;48.764;9.176;2023-05-01T08:45:46;97979.19;;;16.82;50.30
550;BME280;20066;48.764;9.176;2023-05-01T08:48:15;97982.63;;;17.53;49.51
550;BME280;20066;48.764;9.176;2023-05-01T08:50:46;97976.94;;;17.60;48.21
550;BME280;20066;48.764;9.176;2023-05-01T08:53:15;97971.28;;;18.05;47.56
550;BME280;20066;48.764;9.176;2023-05-01T08:55:43;97981.16;;;18.81;45.06
550;BME280;20066;48.764;9.176;2023-05-01T08:58:13;97976.81;;;18.15;46.55
550;BME280;20066;48.764;9.176;2023-05-01T09:00:41;97979.63;;;18.24;46.46
550;BME280;20066;48.764;9.176;2023-05-01T09:03:11;97982.03;;;18.56;45.72
550;BME280;20066;48.764;9.176;2023-05-01T09:05:39;97980.84;;;18.10;46.57
550;BME280;20066;48.764;9.176;2023-05-01T09:08:08;97976.50;;;16.37;50.78
550;BME280;20066;48.764;9.176;2023-05-01T09:10:40;97991.97;;;16.69;49.86
550;BME280;20066;48.764;9.176;2023-05-01T09:13:09;97985.94;;;18.21;47.67
550;BME280;20066;48.764;9.176;2023-05-01T09:15:37;97986.00;;;19.51;44.53
550;BME280;20066;48.764;9.176;2023-05-01T09:18:07;97987.00;;;20.34;43.11
550;BME280;20066;48.764;9.176;2023-05-01T09:20:35;97990.41;;;20.93;40.55
550;BME280;20066;48.764;9.176;2023-05-01T09:23:04;97992.72;;;21.55;39.93
550;BME280;20066;48.764;9.176;2023-05-01T09:25:35;97988.44;;;21.96;38.90
550;BME280;20066;48.764;9.176;2023-05-01T09:28:04;97986.72;;;22.07;38.49
550;BME280;20066;48.764;9.176;2023-05-01T09:30:34;97992.75;;;21.87;38.36
550;BME280;20066;48.764;9.176;2023-05-01T09:33:06;97994.94;;;22.31;38.68
550;BME280;20066;48.764;9.176;2023-05-01T09:35:51;97994.56;;;23.00;37.58
550;BME280;20066;48.764;9.176;2023-05-01T09:38:21;97987.50;;;23.88;35.59
550;BME280;20066;48.764;9.176;2023-05-01T09:40:52;97991.16;;;24.75;34.47
550;BME280;20066;48.764;9.176;2023-05-01T09:43:23;97988.31;;;25.73;33.40
550;BME280;20066;48.764;9.176;2023-05-01T09:46:00;97984.88;;;26.96;30.80
550;BME280;20066;48.764;9.176;2023-05-01T09:48:29;97986.97;;;27.29;29.79
550;BME280;20066;48.764;9.176;2023-05-01T09:51:01;97984.13;;;28.02;28.38
550;BME280;20066;48.764;9.176;2023-05-01T09:53:46;97981.66;;;27.70;29.50
550;BME280;20066;48.764;9.176;2023-05-01T09:56:15;97984.16;;;27.85;29.77
550;BME280;20066;48.764;9.176;2023-05-01T09:58:43;97985.94;;;27.27;30.42
550;BME280;20066;48.764;9.176;2023-05-01T10:01:11;97988.03;;;25.70;32.25
550;BME280;20066;48.764;9.176;2023-05-01T10:03:39;97982.50;;;25.39;33.11
550;BME280;20066;48.764;9.176;2023-05-01T10:06:09;97987.31;;;24.67;34.59
550;BME280;20066;48.764;9.176;2023-05-01T10:08:44;97983.66;;;24.55;34.72
550;BME280;20066;48.764;9.176;2023-05-01T10:11:12;97987.19;;;23.36;36.77
550;BME280;20066;48.764;9.176;2023-05-01T10:13:41;97991.28;;;23.55;36.68
550;BME280;20066;48.764;9.176;2023-05-01T10:16:27;97978.53;;;22.46;38.59
550;BME280;20066;48.764;9.176;2023-05-01T10:18:56;97986.16;;;22.65;38.00
550;BME280;20066;48.764;9.176;2023-05-01T10:21:24;97987.88;;;22.15;38.52
550;BME280;20066;48.764;9.176;2023-05-01T10:23:54;97986.31;;;22.47;37.94
550;BME280;20066;48.764;9.176;2023-05-01T10:26:22;97985.13;;;22.63;37.61
550;BME280;20066;48.764;9.176;2023-05-01T10:28:54;97993.88;;;22.91;37.24
550;BME280;20066;48.764;9.176;2023-05-01T10:31:24;97990.22;;;23.38;36.58
550;BME280;20066;48.764;9.176;2023-05-01T10:33:53;97989.16;;;23.21;35.95
550;BME280;20066;48.764;9.176;2023-05-01T10:36:24;97983.34;;;23.42;36.01
550;BME280;20066;48.764;9.176;2023-05-01T10:38:54;97993.91;;;24.34;35.38
550;BME280;20066;48.764;9.176;2023-05-01T10:41:59;97984.41;;;24.76;34.53
550;BME280;20066;48.764;9.176;2023-05-01T10:44:31;97987.25;;;24.06;34.88
550;BME280;20066;48.764;9.176;2023-05-01T10:47:42;97995.34;;;24.30;34.10
550;BME280;20066;48.764;9.176;2023-05-01T10:50:11;97987.53;;;24.43;34.16
550;BME280;20066;48.764;9.176;2023-05-01T10:53:15;97985.56;;;24.08;33.78
550;BME280;20066;48.764;9.176;2023-05-01T10:55:44;97985.53;;;24.43;33.20
550;BME280;20066;48.764;9.176;2023-05-01T10:58:14;97981.25;;;24.63;33.80
550;BME280;20066;48.764;9.176;2023-05-01T11:01:30;97978.56;;;24.48;34.13
550;BME280;20066;48.764;9.176;2023-05-01T11:03:59;97980.16;;;24.34;34.28
550;BME280;20066;48.764;9.176;2023-05-01T11:06:27;97982.81;;;24.29;34.22
550;BME280;20066;48.764;9.176;2023-05-01T11:08:56;97973.78;;;24.08;34.69
550;BME280;20066;48.764;9.176;2023-05-01T11:11:46;97969.13;;;23.44;35.82
550;BME280;20066;48.764;9.176;2023-05-01T11:14:17;97966.72;;;23.37;35.04
550;BME280;20066;48.764;9.176;2023-05-01T11:16:46;97969.31;;;23.26;36.05
550;BME280;20066;48.764;9.176;2023-05-01T11:19:43;97963.91;;;22.87;36.84
550;BME280;20066;48.764;9.176;2023-05-01T11:22:13;97968.25;;;22.94;36.99
550;BME280;20066;48.764;9.176;2023-05-01T11:24:41;97967.69;;;23.34;36.22
550;BME280;20066;48.764;9.176;2023-05-01T11:27:13;97971.38;;;23.01;36.59
550;BME280;20066;48.764;9.176;2023-05-01T11:29:44;97966.09;;;23.42;36.16
550;BME280;20066;48.764;9.176;2023-05-01T11:32:26;97961.94;;;23.17;36.45
550;BME280;20066;48.764;9.176;2023-05-01T11:34:56;97967.09;;;23.59;35.57
550;BME280;20066;48.764;9.176;2023-05-01T11:37:40;97962.94;;;23.64;36.02
550;BME280;20066;48.764;9.176;2023-05-01T11:40:20;97960.75;;;23.38;35.74
550;BME280;20066;48.764;9.176;2023-05-01T11:42:48;97964.50;;;23.50;35.66
550;BME280;20066;48.764;9.176;2023-05-01T11:45:18;97955.38;;;17.91;46.21
550;BME280;20066;48.764;9.176;2023-05-01T11:47:47;97958.00;;;17.57;48.06
550;BME280;20066;48.764;9.176;2023-05-01T11:50:15;97953.56;;;18.01;48.07
550;BME280;20066;48.764;9.176;2023-05-01T11:52:44;97953.44;;;18.39;46.70
550;BME280;20066;48.764;9.176;2023-05-01T11:55:15;97954.28;;;17.89;48.82
550;BME280;20066;48.764;9.176;2023-05-01T11:57:47;97953.56;;;17.76;47.99
550;BME280;20066;48.764;9.176;2023-05-01T12:00:25;97951.69;;;18.32;46.87
550;BME280;20066;48.764;9.176;2023-05-01T12:02:59;97954.41;;;17.85;47.83
550;BME280;20066;48.764;9.176;2023-05-01T12:05:29;97955.84;;;16.98;49.81
550;BME280;20066;48.764;9.176;2023-05-01T12:08:08;97948.09;;;17.63;48.92
550;BME280;20066;48.764;9.176;2023-05-01T12:10:37;97940.41;;;18.21;48.02
550;BME280;20066;48.764;9.176;2023-05-01T12:13:07;97953.00;;;17.81;48.77
550;BME280;20066;48.764;9.176;2023-05-01T12:15:37;97942.56;;;18.39;47.86
550;BME280;20066;48.764;9.176;2023-05-01T12:18:06;97945.94;;;19.39;45.26
550;BME280;20066;48.764;9.176;2023-05-01T12:20:36;97941.38;;;19.67;44.58
550;BME280;20066;48.764;9.176;2023-05-01T12:23:05;97942.16;;;19.46;45.27
550;BME280;20066;48.764;9.176;2023-05-01T12:25:34;97947.38;;;18.57;45.93
550;BME280;20066;48.764;9.176;2023-05-01T12:28:06;97947.84;;;19.60;44.38
550;BME280;20066;48.764;9.176;2023-05-01T12:30:35;97940.09;;;18.54;46.73
550;BME280;20066;48.764;9.176;2023-05-01T12:33:09;97939.16;;;18.47;47.27
550;BME280;20066;48.764;9.176;2023-05-01T12:35:39;97946.50;;;19.25;45.75
550;BME280;20066;48.764;9.176;2023-05-01T12:38:11;97943.34;;;18.61;46.35
550;BME280;20066;48.764;9.176;2023-05-01T12:40:47;97944.69;;;18.44;47.30
550;BME280;20066;48.764;9.176;2023-05-01T12:43:16;97952.59;;;20.55;42.46
550;BME280;20066;48.764;9.176;2023-05-01T12:45:44;97950.63;;;20.64;41.03
550;BME280;20066;48.764;9.176;2023-05-01T12:48:13;97943.72;;;18.16;47.31
550;BME280;20066;48.764;9.176;2023-05-01T12:50:42;97939.78;;;19.17;44.31
550;BME280;20066;48.764;9.176;2023-05-01T12:53:13;97938.19;;;18.63;45.66
550;BME280;20066;48.764;9.176;2023-05-01T12:55:45;97940.16;;;19.37;44.61
550;BME280;20066;48.764;9.176;2023-05-01T12:58:13;97940.75;;;19.72;43.76
550;BME280;20066;48.764;9.176;2023-05-01T13:00:43;97939.41;;;19.37;44.62
550;BME280;20066;48.764;9.176;2023-05-01T13:03:11;97941.44;;;18.15;47.13
550;BME280;20066;48.764;9.176;2023-05-01T13:05:54;97928.03;;;18.64;46.75
550;BME280;20066;48.764;9.176;2023-05-01T13:08:27;97936.88;;;17.99;47.69
550;BME280;20066;48.764;9.176;2023-05-01T13:10:55;97932.50;;;17.00;51.11
550;BME280;20066;48.764;9.176;2023-05-01T13:13:24;97921.94;;;17.02;51.02
550;BME280;20066;48.764;9.176;2023-05-01T13:15:53;97922.38;;;18.15;48.56
550;BME280;20066;48.764;9.176;2023-05-01T13:18:30;97922.59;;;18.64;47.92
550;BME280;20066;48.764;9.176;2023-05-01T13:21:07;97928.31;;;17.75;49.22
550;BME280;20066;48.764;9.176;2023-05-01T13:23:36;97933.09;;;17.84;48.98
550;BME280;20066;48.764;9.176;2023-05-01T13:26:05;97927.34;;;17.31;50.45
550;BME280;20066;48.764;9.176;2023-05-01T13:28:34;97938.03;;;18.10;48.90
550;BME280;20066;48.764;9.176;2023-05-01T13:31:09;97932.72;;;18.63;47.15
550;BME280;20066;48.764;9.176;2023-05-01T13:33:39;97932.28;;;17.96;49.66
550;BME280;20066;48.764;9.176;2023-05-01T13:36:09;97926.75;;;17.99;49.21
550;BME280;20066;48.764;9.176;2023-05-01T13:38:53;97931.13;;;17.08;52.33
550;BME280;20066;48.764;9.176;2023-05-01T13:41:23;97943.00;;;17.27;52.08